sensor_id;sensor_type;location;lat;lon;timestamp;P1;durP1;ratioP1;P2;durP2;ratioP2
43226;SDS011;28839;52.404;9.808;2023-01-05T00:03:04;11.60;;;2.53;;
43226;SDS011;28839;52.404;9.808;2023-01-05T00:09:59;19.67;;;3.00;;
43226;SDS011;28839;52.404;9.808;2023-01-05T00:16:53;16.02;;;4.37;;
43226;SDS011;28839;52.404;9.808;2023-01-05T00:24:04;15.75;;;3.22;;
43226;SDS011;28839;52.404;9.808;2023-01-05T00:31:00;22.85;;;3.30;;
43226;SDS011;28839;52.404;9.808;2023-01-05T00:37:54;16.02;;;3.08;;
43226;SDS011;28839;52.404;9.808;2023-01-05T00:44:48;13.97;;;2.80;;
43226;SDS011;28839;52.404;9.808;2023-01-05T00:51:43;15.40;;;3.03;;
43226;SDS011;28839;52.404;9.808;2023-01-05T00:58:37;11.00;;;2.67;;
43226;SDS011;28839;52.404;9.808;2023-01-05T01:05:31;12.68;;;2.47;;
43226;SDS011;28839;52.404;9.808;2023-01-05T01:12:26;26.75;;;3.30;;
43226;SDS011;28839;52.404;9.808;2023-01-05T01:19:21;20.23;;;3.60;;
43226;SDS011;28839;52.404;9.808;2023-01-05T01:26:16;15.10;;;3.78;;
43226;SDS011;28839;52.404;9.808;2023-01-05T01:33:11;19.70;;;3.83;;
43226;SDS011;28839;52.404;9.808;2023-01-05T01:40:06;13.55;;;2.78;;
43226;SDS011;28839;52.404;9.808;2023-01-05T01:47:01;15.30;;;3.08;;
43226;SDS011;28839;52.404;9.808;2023-01-05T01:53:56;14.13;;;3.40;;
43226;SDS011;28839;52.404;9.808;2023-01-05T02:00:52;12.07;;;2.60;;
43226;SDS011;28839;52.404;9.808;2023-01-05T02:07:46;12.50;;;3.10;;
43226;SDS011;28839;52.404;9.808;2023-01-05T02:14:44;12.52;;;2.72;;
43226;SDS011;28839;52.404;9.808;2023-01-05T02:21:46;20.83;;;3.08;;
43226;SDS011;28839;52.404;9.808;2023-01-05T02:28:59;13.60;;;3.25;;
43226;SDS011;28839;52.404;9.808;2023-01-05T02:36:09;18.85;;;4.35;;
43226;SDS011;28839;52.404;9.808;2023-01-05T02:43:07;15.98;;;2.62;;
43226;SDS011;28839;52.404;9.808;2023-01-05T02:50:06;13.80;;;2.80;;
43226;SDS011;28839;52.404;9.808;2023-01-05T02:57:05;12.32;;;2.50;;
43226;SDS011;28839;52.404;9.808;2023-01-05T03:04:05;11.15;;;2.58;;
43226;SDS011;28839;52.404;9.808;2023-01-05T03:11:05;16.80;;;3.12;;
43226;SDS011;28839;52.404;9.808;2023-01-05T03:18:19;11.95;;;2.85;;
43226;SDS011;28839;52.404;9.808;2023-01-05T03:25:15;12.40;;;3.47;;
43226;SDS011;28839;52.404;9.808;2023-01-05T03:32:29;16.33;;;3.33;;
43226;SDS011;28839;52.404;9.808;2023-01-05T03:39:46;15.48;;;2.83;;
43226;SDS011;28839;52.404;9.808;2023-01-05T03:46:40;16.87;;;3.55;;
43226;SDS011;28839;52.404;9.808;2023-01-05T03:53:34;18.15;;;4.50;;
43226;SDS011;28839;52.404;9.808;2023-01-05T04:00:30;13.53;;;3.77;;
43226;SDS011;28839;52.404;9.808;2023-01-05T04:07:24;20.40;;;4.22;;
43226;SDS011;28839;52.404;9.808;2023-01-05T04:14:18;17.27;;;4.50;;
43226;SDS011;28839;52.404;9.808;2023-01-05T04:21:13;23.15;;;4.30;;
43226;SDS011;28839;52.404;9.808;2023-01-05T04:28:07;18.60;;;4.45;;
43226;SDS011;28839;52.404;9.808;2023-01-05T04:35:01;23.62;;;3.90;;
43226;SDS011;28839;52.404;9.808;2023-01-05T04:41:56;23.97;;;5.00;;
43226;SDS011;28839;52.404;9.808;2023-01-05T04:48:50;17.25;;;3.85;;
43226;SDS011;28839;52.404;9.808;2023-01-05T04:55:44;19.27;;;3.62;;
43226;SDS011;28839;52.404;9.808;2023-01-05T05:02:39;16.47;;;3.90;;
43226;SDS011;28839;52.404;9.808;2023-01-05T05:09:35;15.55;;;2.62;;
43226;SDS011;28839;52.404;9.808;2023-01-05T05:16:29;16.33;;;3.80;;
43226;SDS011;28839;52.404;9.808;2023-01-05T05:23:24;15.50;;;3.92;;
43226;SDS011;28839;52.404;9.808;2023-01-05T05:30:18;16.02;;;3.78;;
43226;SDS011;28839;52.404;9.808;2023-01-05T05:37:12;14.07;;;3.20;;
43226;SDS011;28839;52.404;9.808;2023-01-05T05:44:07;17.08;;;3.15;;
43226;SDS011;28839;52.404;9.808;2023-01-05T05:51:04;14.82;;;3.50;;
43226;SDS011;28839;52.404;9.808;2023-01-05T05:57:58;20.93;;;3.83;;
43226;SDS011;28839;52.404;9.808;2023-01-05T06:04:53;19.62;;;3.53;;
43226;SDS011;28839;52.404;9.808;2023-01-05T06:11:47;13.35;;;3.50;;
43226;SDS011;28839;52.404;9.808;2023-01-05T06:18:41;12.40;;;3.95;;
43226;SDS011;28839;52.404;9.808;2023-01-05T06:25:36;10.40;;;2.85;;
43226;SDS011;28839;52.404;9.808;2023-01-05T06:32:30;10.43;;;3.00;;
43226;SDS011;28839;52.404;9.808;2023-01-05T06:39:24;16.37;;;4.82;;
43226;SDS011;28839;52.404;9.808;2023-01-05T06:46:22;16.00;;;4.05;;
43226;SDS011;28839;52.404;9.808;2023-01-05T06:53:15;18.05;;;4.40;;
43226;SDS011;28839;52.404;9.808;2023-01-05T07:00:10;20.52;;;4.95;;
43226;SDS011;28839;52.404;9.808;2023-01-05T07:07:06;19.65;;;5.12;;
43226;SDS011;28839;52.404;9.808;2023-01-05T07:14:01;18.35;;;4.93;;
43226;SDS011;28839;52.404;9.808;2023-01-05T07:20:55;21.52;;;4.82;;
43226;SDS011;28839;52.404;9.808;2023-01-05T07:27:53;16.25;;;3.80;;
43226;SDS011;28839;52.404;9.808;2023-01-05T07:34:46;20.85;;;4.62;;
43226;SDS011;28839;52.404;9.808;2023-01-05T07:41:40;18.23;;;3.60;;
43226;SDS011;28839;52.404;9.808;2023-01-05T07:48:36;22.33;;;4.83;;
43226;SDS011;28839;52.404;9.808;2023-01-05T07:55:32;21.10;;;4.22;;
43226;SDS011;28839;52.404;9.808;2023-01-05T08:02:26;22.83;;;4.43;;
43226;SDS011;28839;52.404;9.808;2023-01-05T08:09:21;22.27;;;4.78;;
43226;SDS011;28839;52.404;9.808;2023-01-05T08:16:41;13.57;;;3.80;;
43226;SDS011;28839;52.404;9.808;2023-01-05T08:23:36;20.05;;;4.47;;
43226;SDS011;28839;52.404;9.808;2023-01-05T08:37:25;18.57;;;4.63;;
43226;SDS011;28839;52.404;9.808;2023-01-05T08:44:19;9.90;;;3.28;;
43226;SDS011;28839;52.404;9.808;2023-01-05T08:51:14;12.95;;;3.58;;
43226;SDS011;28839;52.404;9.808;2023-01-05T08:58:08;13.20;;;3.35;;
43226;SDS011;28839;52.404;9.808;2023-01-05T09:05:02;19.45;;;3.80;;
43226;SDS011;28839;52.404;9.808;2023-01-05T09:11:57;11.67;;;2.97;;
43226;SDS011;28839;52.404;9.808;2023-01-05T09:18:51;15.30;;;3.60;;
43226;SDS011;28839;52.404;9.808;2023-01-05T09:25:45;17.45;;;3.50;;
43226;SDS011;28839;52.404;9.808;2023-01-05T09:32:40;20.60;;;4.37;;
43226;SDS011;28839;52.404;9.808;2023-01-05T09:39:34;15.73;;;4.12;;
43226;SDS011;28839;52.404;9.808;2023-01-05T09:46:28;16.23;;;3.42;;
43226;SDS011;28839;52.404;9.808;2023-01-05T09:53:27;13.95;;;3.12;;
43226;SDS011;28839;52.404;9.808;2023-01-05T10:00:22;18.95;;;3.00;;
43226;SDS011;28839;52.404;9.808;2023-01-05T10:07:18;9.98;;;2.90;;
43226;SDS011;28839;52.404;9.808;2023-01-05T10:14:22;10.52;;;3.00;;
43226;SDS011;28839;52.404;9.808;2023-01-05T10:21:22;10.05;;;2.65;;
43226;SDS011;28839;52.404;9.808;2023-01-05T10:28:27;6.65;;;1.60;;
43226;SDS011;28839;52.404;9.808;2023-01-05T10:35:31;12.88;;;2.33;;
43226;SDS011;28839;52.404;9.808;2023-01-05T10:42:48;4.18;;;1.55;;
43226;SDS011;28839;52.404;9.808;2023-01-05T10:49:51;13.82;;;3.58;;
43226;SDS011;28839;52.404;9.808;2023-01-05T10:56:47;13.90;;;3.40;;
43226;SDS011;28839;52.404;9.808;2023-01-05T11:03:41;14.13;;;3.33;;
43226;SDS011;28839;52.404;9.808;2023-01-05T11:10:38;5.00;;;1.20;;
43226;SDS011;28839;52.404;9.808;2023-01-05T11:17:42;4.07;;;1.00;;
43226;SDS011;28839;52.404;9.808;2023-01-05T11:24:37;4.95;;;1.12;;
43226;SDS011;28839;52.404;9.808;2023-01-05T11:31:32;4.40;;;0.90;;
43226;SDS011;28839;52.404;9.808;2023-01-05T11:38:29;3.03;;;0.73;;
43226;SDS011;28839;52.404;9.808;2023-01-05T11:45:24;3.08;;;0.68;;
43226;SDS011;28839;52.404;9.808;2023-01-05T11:52:27;1.37;;;0.93;;
43226;SDS011;28839;52.404;9.808;2023-01-05T11:59:30;3.75;;;1.05;;
43226;SDS011;28839;52.404;9.808;2023-01-05T12:06:27;5.07;;;2.42;;
43226;SDS011;28839;52.404;9.808;2023-01-05T12:20:55;1.08;;;0.45;;
43226;SDS011;28839;52.404;9.808;2023-01-05T12:28:09;6.78;;;2.30;;
43226;SDS011;28839;52.404;9.808;2023-01-05T12:35:33;7.62;;;2.12;;
43226;SDS011;28839;52.404;9.808;2023-01-05T12:42:52;2.60;;;1.10;;
43226;SDS011;28839;52.404;9.808;2023-01-05T12:49:53;4.05;;;1.30;;
43226;SDS011;28839;52.404;9.808;2023-01-05T12:56:50;1.35;;;0.93;;
43226;SDS011;28839;52.404;9.808;2023-01-05T13:03:48;6.62;;;2.30;;
43226;SDS011;28839;52.404;9.808;2023-01-05T13:10:48;6.32;;;1.60;;
43226;SDS011;28839;52.404;9.808;2023-01-05T13:17:46;3.58;;;2.03;;
43226;SDS011;28839;52.404;9.808;2023-01-05T13:24:48;7.97;;;3.75;;
43226;SDS011;28839;52.404;9.808;2023-01-05T13:39:18;4.60;;;2.30;;
43226;SDS011;28839;52.404;9.808;2023-01-05T13:46:25;9.40;;;2.70;;
43226;SDS011;28839;52.404;9.808;2023-01-05T13:53:38;2.15;;;1.85;;
43226;SDS011;28839;52.404;9.808;2023-01-05T14:00:34;2.92;;;1.60;;
43226;SDS011;28839;52.404;9.808;2023-01-05T14:07:38;4.60;;;1.50;;
43226;SDS011;28839;52.404;9.808;2023-01-05T14:14:56;2.65;;;1.48;;
43226;SDS011;28839;52.404;9.808;2023-01-05T14:21:58;4.07;;;1.52;;
43226;SDS011;28839;52.404;9.808;2023-01-05T14:28:57;6.28;;;1.60;;
43226;SDS011;28839;52.404;9.808;2023-01-05T14:35:52;5.62;;;2.22;;
43226;SDS011;28839;52.404;9.808;2023-01-05T14:42:46;9.30;;;1.90;;
43226;SDS011;28839;52.404;9.808;2023-01-05T14:49:42;7.25;;;2.22;;
43226;SDS011;28839;52.404;9.808;2023-01-05T14:56:46;7.07;;;2.42;;
43226;SDS011;28839;52.404;9.808;2023-01-05T15:04:14;11.43;;;2.90;;
43226;SDS011;28839;52.404;9.808;2023-01-05T15:11:16;3.90;;;1.98;;
43226;SDS011;28839;52.404;9.808;2023-01-05T15:26:02;9.23;;;2.60;;
43226;SDS011;28839;52.404;9.808;2023-01-05T15:33:14;8.82;;;2.90;;
43226;SDS011;28839;52.404;9.808;2023-01-05T15:40:24;8.40;;;3.30;;
43226;SDS011;28839;52.404;9.808;2023-01-05T15:47:21;8.65;;;3.30;;
43226;SDS011;28839;52.404;9.808;2023-01-05T15:54:21;5.93;;;2.65;;
43226;SDS011;28839;52.404;9.808;2023-01-05T16:01:16;5.75;;;3.60;;
43226;SDS011;28839;52.404;9.808;2023-01-05T16:08:12;8.23;;;2.83;;
43226;SDS011;28839;52.404;9.808;2023-01-05T16:15:10;6.62;;;2.20;;
43226;SDS011;28839;52.404;9.808;2023-01-05T16:22:07;7.53;;;3.12;;
43226;SDS011;28839;52.404;9.808;2023-01-05T16:29:27;7.20;;;2.87;;
43226;SDS011;28839;52.404;9.808;2023-01-05T16:36:26;11.98;;;3.30;;
43226;SDS011;28839;52.404;9.808;2023-01-05T16:43:21;8.30;;;3.62;;
43226;SDS011;28839;52.404;9.808;2023-01-05T16:57:47;10.88;;;4.60;;
43226;SDS011;28839;52.404;9.808;2023-01-05T17:04:41;9.05;;;3.90;;
43226;SDS011;28839;52.404;9.808;2023-01-05T17:11:36;12.18;;;4.85;;
43226;SDS011;28839;52.404;9.808;2023-01-05T17:18:31;24.85;;;12.68;;
43226;SDS011;28839;52.404;9.808;2023-01-05T17:25:26;10.00;;;5.60;;
43226;SDS011;28839;52.404;9.808;2023-01-05T17:32:25;8.65;;;4.05;;
43226;SDS011;28839;52.404;9.808;2023-01-05T17:39:19;12.77;;;4.47;;
43226;SDS011;28839;52.404;9.808;2023-01-05T17:46:15;9.93;;;4.55;;
43226;SDS011;28839;52.404;9.808;2023-01-05T17:53:12;12.68;;;5.12;;
43226;SDS011;28839;52.404;9.808;2023-01-05T18:00:06;10.90;;;6.60;;
43226;SDS011;28839;52.404;9.808;2023-01-05T18:07:02;20.45;;;12.07;;
43226;SDS011;28839;52.404;9.808;2023-01-05T18:13:58;20.53;;;9.97;;
43226;SDS011;28839;52.404;9.808;2023-01-05T18:20:52;16.58;;;9.52;;
43226;SDS011;28839;52.404;9.808;2023-01-05T18:27:51;20.60;;;9.57;;
43226;SDS011;28839;52.404;9.808;2023-01-05T18:34:46;15.43;;;8.13;;
43226;SDS011;28839;52.404;9.808;2023-01-05T18:41:40;19.00;;;7.87;;
43226;SDS011;28839;52.404;9.808;2023-01-05T18:48:34;12.40;;;7.55;;
43226;SDS011;28839;52.404;9.808;2023-01-05T18:55:29;19.67;;;9.02;;
43226;SDS011;28839;52.404;9.808;2023-01-05T19:02:23;20.25;;;11.63;;
43226;SDS011;28839;52.404;9.808;2023-01-05T19:09:18;22.00;;;11.00;;
43226;SDS011;28839;52.404;9.808;2023-01-05T19:16:13;19.10;;;10.02;;
43226;SDS011;28839;52.404;9.808;2023-01-05T19:23:08;20.80;;;8.18;;
43226;SDS011;28839;52.404;9.808;2023-01-05T19:30:02;16.42;;;8.05;;
43226;SDS011;28839;52.404;9.808;2023-01-05T19:36:57;24.17;;;12.90;;
43226;SDS011;28839;52.404;9.808;2023-01-05T19:43:52;47.67;;;23.08;;
43226;SDS011;28839;52.404;9.808;2023-01-05T19:50:54;25.27;;;12.52;;
43226;SDS011;28839;52.404;9.808;2023-01-05T19:57:50;31.80;;;13.52;;
43226;SDS011;28839;52.404;9.808;2023-01-05T20:04:44;36.78;;;19.80;;
43226;SDS011;28839;52.404;9.808;2023-01-05T20:11:39;32.42;;;16.67;;
43226;SDS011;28839;52.404;9.808;2023-01-05T20:18:36;47.97;;;21.65;;
43226;SDS011;28839;52.404;9.808;2023-01-05T20:25:31;63.47;;;29.63;;
43226;SDS011;28839;52.404;9.808;2023-01-05T20:32:25;45.53;;;17.85;;
43226;SDS011;28839;52.404;9.808;2023-01-05T20:39:21;31.17;;;14.82;;
43226;SDS011;28839;52.404;9.808;2023-01-05T20:46:16;67.15;;;28.35;;
43226;SDS011;28839;52.404;9.808;2023-01-05T20:53:11;69.50;;;30.12;;
43226;SDS011;28839;52.404;9.808;2023-01-05T21:00:07;89.45;;;41.80;;
43226;SDS011;28839;52.404;9.808;2023-01-05T21:07:03;62.00;;;27.25;;
43226;SDS011;28839;52.404;9.808;2023-01-05T21:13:57;38.85;;;17.27;;
43226;SDS011;28839;52.404;9.808;2023-01-05T21:20:53;128.70;;;64.07;;
43226;SDS011;28839;52.404;9.808;2023-01-05T21:27:47;52.35;;;22.35;;
43226;SDS011;28839;52.404;9.808;2023-01-05T21:34:41;58.95;;;29.58;;
43226;SDS011;28839;52.404;9.808;2023-01-05T21:41:37;92.68;;;41.08;;
43226;SDS011;28839;52.404;9.808;2023-01-05T21:48:48;56.33;;;25.42;;
43226;SDS011;28839;52.404;9.808;2023-01-05T21:55:42;43.78;;;18.35;;
43226;SDS011;28839;52.404;9.808;2023-01-05T22:02:55;45.03;;;16.85;;
43226;SDS011;28839;52.404;9.808;2023-01-05T22:09:49;43.92;;;19.75;;
43226;SDS011;28839;52.404;9.808;2023-01-05T22:16:43;52.33;;;18.37;;
43226;SDS011;28839;52.404;9.808;2023-01-05T22:23:38;49.60;;;18.40;;
43226;SDS011;28839;52.404;9.808;2023-01-05T22:30:33;43.05;;;16.62;;
43226;SDS011;28839;52.404;9.808;2023-01-05T22:37:27;52.83;;;19.50;;
43226;SDS011;28839;52.404;9.808;2023-01-05T22:44:22;46.57;;;17.20;;
43226;SDS011;28839;52.404;9.808;2023-01-05T22:51:17;44.60;;;14.82;;
43226;SDS011;28839;52.404;9.808;2023-01-05T22:58:12;35.90;;;13.07;;
43226;SDS011;28839;52.404;9.808;2023-01-05T23:05:07;37.72;;;14.10;;
43226;SDS011;28839;52.404;9.808;2023-01-05T23:12:02;41.85;;;14.30;;
43226;SDS011;28839;52.404;9.808;2023-01-05T23:18:56;37.25;;;14.80;;
43226;SDS011;28839;52.404;9.808;2023-01-05T23:25:52;40.67;;;15.17;;
43226;SDS011;28839;52.404;9.808;2023-01-05T23:32:46;39.28;;;14.40;;
43226;SDS011;28839;52.404;9.808;2023-01-05T23:39:40;35.13;;;13.62;;
43226;SDS011;28839;52.404;9.808;2023-01-05T23:46:35;32.67;;;11.35;;
43226;SDS011;28839;52.404;9.808;2023-01-05T23:53:30;32.63;;;11.52;;
